sensor_id;sensor_type;location;lat;lon;timestamp;P1;durP1;ratioP1;P2;durP2;ratioP2
52918;SDS011;38793;52.690;6.812;2022-12-22T00:01:35;35.90;;;24.67;;
52918;SDS011;38793;52.690;6.812;2022-12-22T00:04:19;35.92;;;23.77;;
52918;SDS011;38793;52.690;6.812;2022-12-22T00:07:04;38.22;;;23.92;;
52918;SDS011;38793;52.690;6.812;2022-12-22T00:09:48;36.22;;;24.92;;
52918;SDS011;38793;52.690;6.812;2022-12-22T00:12:32;36.88;;;24.08;;
52918;SDS011;38793;52.690;6.812;2022-12-22T00:15:17;35.10;;;25.20;;
52918;SDS011;38793;52.690;6.812;2022-12-22T00:18:02;32.25;;;24.20;;
52918;SDS011;38793;52.690;6.812;2022-12-22T00:20:47;37.63;;;25.70;;
52918;SDS011;38793;52.690;6.812;2022-12-22T00:23:31;35.60;;;25.42;;
52918;SDS011;38793;52.690;6.812;2022-12-22T00:26:16;37.13;;;25.45;;
52918;SDS011;38793;52.690;6.812;2022-12-22T00:29:01;38.83;;;24.65;;
52918;SDS011;38793;52.690;6.812;2022-12-22T00:31:46;37.72;;;25.80;;
52918;SDS011;38793;52.690;6.812;2022-12-22T00:34:31;36.25;;;24.75;;
52918;SDS011;38793;52.690;6.812;2022-12-22T00:37:24;37.15;;;25.20;;
52918;SDS011;38793;52.690;6.812;2022-12-22T00:40:19;32.10;;;25.50;;
52918;SDS011;38793;52.690;6.812;2022-12-22T00:43:06;34.70;;;25.60;;
52918;SDS011;38793;52.690;6.812;2022-12-22T00:45:50;40.30;;;25.58;;
52918;SDS011;38793;52.690;6.812;2022-12-22T00:48:35;34.00;;;24.08;;
52918;SDS011;38793;52.690;6.812;2022-12-22T00:51:20;35.28;;;24.52;;
52918;SDS011;38793;52.690;6.812;2022-12-22T00:54:07;37.17;;;25.77;;
52918;SDS011;38793;52.690;6.812;2022-12-22T00:56:53;34.75;;;24.67;;
52918;SDS011;38793;52.690;6.812;2022-12-22T00:59:37;36.97;;;26.08;;
52918;SDS011;38793;52.690;6.812;2022-12-22T01:02:21;34.47;;;25.20;;
52918;SDS011;38793;52.690;6.812;2022-12-22T01:05:06;38.83;;;24.58;;
52918;SDS011;38793;52.690;6.812;2022-12-22T01:07:50;35.88;;;25.20;;
52918;SDS011;38793;52.690;6.812;2022-12-22T01:10:35;33.25;;;24.27;;
52918;SDS011;38793;52.690;6.812;2022-12-22T01:13:19;37.47;;;26.98;;
52918;SDS011;38793;52.690;6.812;2022-12-22T01:16:03;37.10;;;27.55;;
52918;SDS011;38793;52.690;6.812;2022-12-22T01:18:48;43.78;;;27.05;;
52918;SDS011;38793;52.690;6.812;2022-12-22T01:21:32;41.03;;;26.80;;
52918;SDS011;38793;52.690;6.812;2022-12-22T01:24:17;38.25;;;27.02;;
52918;SDS011;38793;52.690;6.812;2022-12-22T01:27:02;37.28;;;26.23;;
52918;SDS011;38793;52.690;6.812;2022-12-22T01:29:46;42.55;;;28.27;;
52918;SDS011;38793;52.690;6.812;2022-12-22T01:32:31;36.13;;;26.73;;
52918;SDS011;38793;52.690;6.812;2022-12-22T01:38:06;35.85;;;28.10;;
52918;SDS011;38793;52.690;6.812;2022-12-22T01:40:51;44.63;;;28.08;;
52918;SDS011;38793;52.690;6.812;2022-12-22T01:43:36;40.05;;;26.98;;
52918;SDS011;38793;52.690;6.812;2022-12-22T01:46:22;40.95;;;28.02;;
52918;SDS011;38793;52.690;6.812;2022-12-22T01:49:07;40.15;;;28.05;;
52918;SDS011;38793;52.690;6.812;2022-12-22T01:51:56;35.40;;;26.75;;
52918;SDS011;38793;52.690;6.812;2022-12-22T01:54:41;37.47;;;27.40;;
52918;SDS011;38793;52.690;6.812;2022-12-22T01:57:26;41.25;;;29.20;;
52918;SDS011;38793;52.690;6.812;2022-12-22T02:00:11;39.08;;;27.88;;
52918;SDS011;38793;52.690;6.812;2022-12-22T02:02:55;40.80;;;29.08;;
52918;SDS011;38793;52.690;6.812;2022-12-22T02:05:42;38.15;;;29.17;;
52918;SDS011;38793;52.690;6.812;2022-12-22T02:08:43;40.13;;;30.55;;
52918;SDS011;38793;52.690;6.812;2022-12-22T02:12:17;47.13;;;29.60;;
52918;SDS011;38793;52.690;6.812;2022-12-22T02:14:54;37.00;;;28.20;;
52918;SDS011;38793;52.690;6.812;2022-12-22T02:20:59;44.55;;;29.77;;
52918;SDS011;38793;52.690;6.812;2022-12-22T02:23:52;40.88;;;27.92;;
52918;SDS011;38793;52.690;6.812;2022-12-22T02:26:55;39.30;;;28.98;;
52918;SDS011;38793;52.690;6.812;2022-12-22T02:29:46;39.03;;;28.92;;
52918;SDS011;38793;52.690;6.812;2022-12-22T02:32:35;45.63;;;31.23;;
52918;SDS011;38793;52.690;6.812;2022-12-22T02:35:22;43.50;;;30.80;;
52918;SDS011;38793;52.690;6.812;2022-12-22T02:47:02;39.22;;;30.60;;
52918;SDS011;38793;52.690;6.812;2022-12-22T02:49:56;49.97;;;31.63;;
52918;SDS011;38793;52.690;6.812;2022-12-22T02:52:46;45.35;;;30.30;;
52918;SDS011;38793;52.690;6.812;2022-12-22T02:55:32;40.28;;;29.80;;
52918;SDS011;38793;52.690;6.812;2022-12-22T02:58:17;43.53;;;29.60;;
52918;SDS011;38793;52.690;6.812;2022-12-22T03:01:02;43.20;;;30.20;;
52918;SDS011;38793;52.690;6.812;2022-12-22T03:03:47;45.88;;;31.02;;
52918;SDS011;38793;52.690;6.812;2022-12-22T03:06:32;44.28;;;30.45;;
52918;SDS011;38793;52.690;6.812;2022-12-22T03:09:16;40.47;;;30.48;;
52918;SDS011;38793;52.690;6.812;2022-12-22T03:12:01;44.90;;;30.33;;
52918;SDS011;38793;52.690;6.812;2022-12-22T03:14:48;39.25;;;29.55;;
52918;SDS011;38793;52.690;6.812;2022-12-22T03:17:32;44.75;;;29.15;;
52918;SDS011;38793;52.690;6.812;2022-12-22T03:20:16;41.10;;;29.65;;
52918;SDS011;38793;52.690;6.812;2022-12-22T03:23:04;40.03;;;29.38;;
52918;SDS011;38793;52.690;6.812;2022-12-22T03:25:49;43.65;;;29.17;;
52918;SDS011;38793;52.690;6.812;2022-12-22T03:28:21;43.78;;;30.98;;
52918;SDS011;38793;52.690;6.812;2022-12-22T03:30:52;43.05;;;28.85;;
52918;SDS011;38793;52.690;6.812;2022-12-22T03:33:26;42.08;;;31.83;;
52918;SDS011;38793;52.690;6.812;2022-12-22T03:35:53;43.33;;;30.23;;
52918;SDS011;38793;52.690;6.812;2022-12-22T03:38:19;43.88;;;31.63;;
52918;SDS011;38793;52.690;6.812;2022-12-22T03:40:45;47.73;;;30.20;;
52918;SDS011;38793;52.690;6.812;2022-12-22T03:43:11;46.40;;;32.42;;
52918;SDS011;38793;52.690;6.812;2022-12-22T03:45:57;45.08;;;31.95;;
52918;SDS011;38793;52.690;6.812;2022-12-22T03:48:42;49.47;;;32.80;;
52918;SDS011;38793;52.690;6.812;2022-12-22T03:51:08;46.15;;;31.67;;
52918;SDS011;38793;52.690;6.812;2022-12-22T03:53:35;48.65;;;33.15;;
52918;SDS011;38793;52.690;6.812;2022-12-22T03:56:00;48.42;;;33.13;;
52918;SDS011;38793;52.690;6.812;2022-12-22T03:58:26;46.20;;;31.00;;
52918;SDS011;38793;52.690;6.812;2022-12-22T04:01:02;48.50;;;32.75;;
52918;SDS011;38793;52.690;6.812;2022-12-22T04:03:29;55.25;;;32.33;;
52918;SDS011;38793;52.690;6.812;2022-12-22T04:05:54;43.83;;;29.90;;
52918;SDS011;38793;52.690;6.812;2022-12-22T04:08:20;46.30;;;31.80;;
52918;SDS011;38793;52.690;6.812;2022-12-22T04:10:46;49.83;;;32.87;;
52918;SDS011;38793;52.690;6.812;2022-12-22T04:13:30;47.17;;;32.40;;
52918;SDS011;38793;52.690;6.812;2022-12-22T04:15:55;49.47;;;32.63;;
52918;SDS011;38793;52.690;6.812;2022-12-22T04:18:21;47.40;;;32.97;;
52918;SDS011;38793;52.690;6.812;2022-12-22T04:20:47;49.83;;;32.30;;
52918;SDS011;38793;52.690;6.812;2022-12-22T04:25:38;48.47;;;31.90;;
52918;SDS011;38793;52.690;6.812;2022-12-22T04:28:04;55.40;;;33.80;;
52918;SDS011;38793;52.690;6.812;2022-12-22T04:30:29;57.40;;;34.37;;
52918;SDS011;38793;52.690;6.812;2022-12-22T04:32:55;57.77;;;34.17;;
52918;SDS011;38793;52.690;6.812;2022-12-22T04:35:20;53.70;;;32.10;;
52918;SDS011;38793;52.690;6.812;2022-12-22T04:37:46;54.20;;;32.70;;
52918;SDS011;38793;52.690;6.812;2022-12-22T04:40:11;55.10;;;34.17;;
52918;SDS011;38793;52.690;6.812;2022-12-22T04:42:37;51.35;;;33.05;;
52918;SDS011;38793;52.690;6.812;2022-12-22T04:45:03;51.00;;;33.47;;
52918;SDS011;38793;52.690;6.812;2022-12-22T04:47:29;50.65;;;32.67;;
52918;SDS011;38793;52.690;6.812;2022-12-22T04:49:54;53.10;;;32.37;;
52918;SDS011;38793;52.690;6.812;2022-12-22T04:52:20;48.03;;;31.13;;
52918;SDS011;38793;52.690;6.812;2022-12-22T04:54:46;50.30;;;32.90;;
52918;SDS011;38793;52.690;6.812;2022-12-22T04:57:11;47.90;;;32.47;;
52918;SDS011;38793;52.690;6.812;2022-12-22T04:59:37;47.10;;;32.23;;
52918;SDS011;38793;52.690;6.812;2022-12-22T05:02:02;50.00;;;33.63;;
52918;SDS011;38793;52.690;6.812;2022-12-22T05:04:28;42.37;;;31.40;;
52918;SDS011;38793;52.690;6.812;2022-12-22T05:06:53;46.90;;;32.03;;
52918;SDS011;38793;52.690;6.812;2022-12-22T05:09:19;49.13;;;32.50;;
52918;SDS011;38793;52.690;6.812;2022-12-22T05:11:44;45.93;;;31.17;;
52918;SDS011;38793;52.690;6.812;2022-12-22T05:14:10;55.23;;;33.47;;
52918;SDS011;38793;52.690;6.812;2022-12-22T05:16:36;46.13;;;30.87;;
52918;SDS011;38793;52.690;6.812;2022-12-22T05:19:01;56.00;;;33.90;;
52918;SDS011;38793;52.690;6.812;2022-12-22T05:21:27;50.47;;;32.43;;
52918;SDS011;38793;52.690;6.812;2022-12-22T05:23:52;52.40;;;32.53;;
52918;SDS011;38793;52.690;6.812;2022-12-22T05:26:18;56.63;;;34.47;;
52918;SDS011;38793;52.690;6.812;2022-12-22T05:28:44;57.20;;;34.47;;
52918;SDS011;38793;52.690;6.812;2022-12-22T05:31:16;59.67;;;35.28;;
52918;SDS011;38793;52.690;6.812;2022-12-22T05:33:43;53.65;;;34.00;;
52918;SDS011;38793;52.690;6.812;2022-12-22T05:36:09;57.17;;;34.33;;
52918;SDS011;38793;52.690;6.812;2022-12-22T05:38:35;56.38;;;33.22;;
52918;SDS011;38793;52.690;6.812;2022-12-22T05:41:00;63.47;;;35.88;;
52918;SDS011;38793;52.690;6.812;2022-12-22T05:43:26;67.68;;;36.55;;
52918;SDS011;38793;52.690;6.812;2022-12-22T05:45:52;62.05;;;36.53;;
52918;SDS011;38793;52.690;6.812;2022-12-22T05:48:18;57.10;;;35.83;;
52918;SDS011;38793;52.690;6.812;2022-12-22T05:50:44;61.38;;;34.17;;
52918;SDS011;38793;52.690;6.812;2022-12-22T05:53:10;65.75;;;38.30;;
52918;SDS011;38793;52.690;6.812;2022-12-22T05:55:36;63.17;;;36.75;;
52918;SDS011;38793;52.690;6.812;2022-12-22T05:58:01;51.90;;;33.30;;
52918;SDS011;38793;52.690;6.812;2022-12-22T06:00:28;54.60;;;33.67;;
52918;SDS011;38793;52.690;6.812;2022-12-22T06:02:54;59.55;;;34.17;;
52918;SDS011;38793;52.690;6.812;2022-12-22T06:05:20;61.25;;;35.05;;
52918;SDS011;38793;52.690;6.812;2022-12-22T06:07:46;51.33;;;33.78;;
52918;SDS011;38793;52.690;6.812;2022-12-22T06:10:12;56.90;;;34.83;;
52918;SDS011;38793;52.690;6.812;2022-12-22T06:12:39;61.83;;;35.95;;
52918;SDS011;38793;52.690;6.812;2022-12-22T06:15:05;88.97;;;40.08;;
52918;SDS011;38793;52.690;6.812;2022-12-22T06:17:32;96.65;;;43.42;;
52918;SDS011;38793;52.690;6.812;2022-12-22T06:19:57;50.13;;;32.40;;
52918;SDS011;38793;52.690;6.812;2022-12-22T06:22:23;59.57;;;34.83;;
52918;SDS011;38793;52.690;6.812;2022-12-22T06:24:48;57.77;;;32.80;;
52918;SDS011;38793;52.690;6.812;2022-12-22T06:27:14;60.23;;;34.80;;
52918;SDS011;38793;52.690;6.812;2022-12-22T06:29:39;56.50;;;34.47;;
52918;SDS011;38793;52.690;6.812;2022-12-22T06:32:05;57.37;;;34.00;;
52918;SDS011;38793;52.690;6.812;2022-12-22T06:34:31;54.88;;;32.40;;
52918;SDS011;38793;52.690;6.812;2022-12-22T06:36:56;53.40;;;32.03;;
52918;SDS011;38793;52.690;6.812;2022-12-22T06:39:22;58.17;;;33.83;;
52918;SDS011;38793;52.690;6.812;2022-12-22T06:41:47;47.03;;;29.97;;
52918;SDS011;38793;52.690;6.812;2022-12-22T06:44:31;52.47;;;30.65;;
52918;SDS011;38793;52.690;6.812;2022-12-22T06:46:57;54.20;;;30.63;;
52918;SDS011;38793;52.690;6.812;2022-12-22T06:49:23;65.67;;;35.27;;
52918;SDS011;38793;52.690;6.812;2022-12-22T06:51:48;42.93;;;28.60;;
52918;SDS011;38793;52.690;6.812;2022-12-22T06:54:14;51.20;;;28.97;;
52918;SDS011;38793;52.690;6.812;2022-12-22T06:56:39;46.07;;;29.27;;
52918;SDS011;38793;52.690;6.812;2022-12-22T06:59:05;51.70;;;32.22;;
52918;SDS011;38793;52.690;6.812;2022-12-22T07:01:31;58.80;;;33.30;;
52918;SDS011;38793;52.690;6.812;2022-12-22T07:03:56;59.63;;;31.77;;
52918;SDS011;38793;52.690;6.812;2022-12-22T07:06:22;66.20;;;35.23;;
52918;SDS011;38793;52.690;6.812;2022-12-22T07:08:48;58.80;;;33.43;;
52918;SDS011;38793;52.690;6.812;2022-12-22T07:11:13;60.25;;;32.97;;
52918;SDS011;38793;52.690;6.812;2022-12-22T07:13:40;62.17;;;34.80;;
52918;SDS011;38793;52.690;6.812;2022-12-22T07:16:06;60.95;;;35.25;;
52918;SDS011;38793;52.690;6.812;2022-12-22T07:18:35;65.20;;;33.30;;
52918;SDS011;38793;52.690;6.812;2022-12-22T07:21:02;62.75;;;33.05;;
52918;SDS011;38793;52.690;6.812;2022-12-22T07:23:30;66.38;;;33.90;;
52918;SDS011;38793;52.690;6.812;2022-12-22T07:25:56;69.72;;;35.28;;
52918;SDS011;38793;52.690;6.812;2022-12-22T07:28:22;65.50;;;34.00;;
52918;SDS011;38793;52.690;6.812;2022-12-22T07:30:48;57.05;;;31.48;;
52918;SDS011;38793;52.690;6.812;2022-12-22T07:35:40;67.90;;;32.28;;
52918;SDS011;38793;52.690;6.812;2022-12-22T07:38:05;65.73;;;30.83;;
52918;SDS011;38793;52.690;6.812;2022-12-22T07:40:31;67.33;;;31.93;;
52918;SDS011;38793;52.690;6.812;2022-12-22T07:42:57;61.23;;;30.17;;
52918;SDS011;38793;52.690;6.812;2022-12-22T07:45:24;60.42;;;31.55;;
52918;SDS011;38793;52.690;6.812;2022-12-22T07:47:50;57.80;;;28.67;;
52918;SDS011;38793;52.690;6.812;2022-12-22T07:50:16;57.53;;;29.27;;
52918;SDS011;38793;52.690;6.812;2022-12-22T07:52:52;59.10;;;29.10;;
52918;SDS011;38793;52.690;6.812;2022-12-22T07:57:44;43.03;;;25.08;;
52918;SDS011;38793;52.690;6.812;2022-12-22T08:00:10;46.05;;;25.50;;
52918;SDS011;38793;52.690;6.812;2022-12-22T08:02:36;46.55;;;25.50;;
52918;SDS011;38793;52.690;6.812;2022-12-22T08:05:02;50.53;;;25.70;;
52918;SDS011;38793;52.690;6.812;2022-12-22T08:07:28;46.35;;;23.85;;
52918;SDS011;38793;52.690;6.812;2022-12-22T08:09:53;64.37;;;21.57;;
52918;SDS011;38793;52.690;6.812;2022-12-22T08:12:19;32.57;;;18.83;;
52918;SDS011;38793;52.690;6.812;2022-12-22T08:14:44;38.80;;;20.90;;
52918;SDS011;38793;52.690;6.812;2022-12-22T08:17:10;131.27;;;23.43;;
52918;SDS011;38793;52.690;6.812;2022-12-22T08:19:36;37.97;;;18.02;;
52918;SDS011;38793;52.690;6.812;2022-12-22T08:22:02;371.07;;;33.73;;
52918;SDS011;38793;52.690;6.812;2022-12-22T08:24:28;55.42;;;20.13;;
52918;SDS011;38793;52.690;6.812;2022-12-22T08:26:56;122.90;;;20.90;;
52918;SDS011;38793;52.690;6.812;2022-12-22T08:29:30;31.55;;;15.88;;
52918;SDS011;38793;52.690;6.812;2022-12-22T08:34:27;189.82;;;22.17;;
52918;SDS011;38793;52.690;6.812;2022-12-22T08:36:54;160.63;;;22.87;;
52918;SDS011;38793;52.690;6.812;2022-12-22T08:39:22;82.05;;;19.48;;
52918;SDS011;38793;52.690;6.812;2022-12-22T08:41:49;39.65;;;17.73;;
52918;SDS011;38793;52.690;6.812;2022-12-22T08:44:15;67.13;;;29.47;;
52918;SDS011;38793;52.690;6.812;2022-12-22T08:46:52;67.35;;;29.23;;
52918;SDS011;38793;52.690;6.812;2022-12-22T08:49:19;73.75;;;29.40;;
52918;SDS011;38793;52.690;6.812;2022-12-22T08:54:11;69.53;;;26.90;;
52918;SDS011;38793;52.690;6.812;2022-12-22T08:56:37;67.40;;;24.73;;
52918;SDS011;38793;52.690;6.812;2022-12-22T08:59:03;68.35;;;25.50;;
52918;SDS011;38793;52.690;6.812;2022-12-22T09:01:32;56.42;;;23.48;;
52918;SDS011;38793;52.690;6.812;2022-12-22T09:03:59;53.15;;;24.17;;
52918;SDS011;38793;52.690;6.812;2022-12-22T09:06:24;59.60;;;24.88;;
52918;SDS011;38793;52.690;6.812;2022-12-22T09:08:57;60.60;;;24.33;;
52918;SDS011;38793;52.690;6.812;2022-12-22T09:11:24;60.45;;;25.27;;
52918;SDS011;38793;52.690;6.812;2022-12-22T09:13:51;65.03;;;26.30;;
52918;SDS011;38793;52.690;6.812;2022-12-22T09:18:43;61.95;;;26.27;;
52918;SDS011;38793;52.690;6.812;2022-12-22T09:21:09;60.57;;;25.10;;
52918;SDS011;38793;52.690;6.812;2022-12-22T09:23:35;51.25;;;21.02;;
52918;SDS011;38793;52.690;6.812;2022-12-22T09:26:05;51.00;;;22.27;;
52918;SDS011;38793;52.690;6.812;2022-12-22T09:28:35;50.95;;;21.45;;
52918;SDS011;38793;52.690;6.812;2022-12-22T09:31:01;52.97;;;22.05;;
52918;SDS011;38793;52.690;6.812;2022-12-22T09:33:27;46.63;;;22.75;;
52918;SDS011;38793;52.690;6.812;2022-12-22T09:35:52;48.03;;;21.37;;
52918;SDS011;38793;52.690;6.812;2022-12-22T09:38:18;51.23;;;21.13;;
52918;SDS011;38793;52.690;6.812;2022-12-22T09:40:44;51.33;;;21.60;;
52918;SDS011;38793;52.690;6.812;2022-12-22T09:43:14;44.92;;;18.15;;
52918;SDS011;38793;52.690;6.812;2022-12-22T09:45:42;40.88;;;19.20;;
52918;SDS011;38793;52.690;6.812;2022-12-22T09:48:09;34.85;;;15.80;;
52918;SDS011;38793;52.690;6.812;2022-12-22T09:50:38;40.22;;;17.35;;
52918;SDS011;38793;52.690;6.812;2022-12-22T09:53:05;33.65;;;15.15;;
52918;SDS011;38793;52.690;6.812;2022-12-22T09:55:42;35.58;;;16.17;;
52918;SDS011;38793;52.690;6.812;2022-12-22T09:58:14;37.58;;;17.00;;
52918;SDS011;38793;52.690;6.812;2022-12-22T10:00:45;36.92;;;17.55;;
52918;SDS011;38793;52.690;6.812;2022-12-22T10:03:26;35.30;;;17.55;;
52918;SDS011;38793;52.690;6.812;2022-12-22T10:06:03;39.35;;;17.02;;
52918;SDS011;38793;52.690;6.812;2022-12-22T10:08:33;40.35;;;15.63;;
52918;SDS011;38793;52.690;6.812;2022-12-22T10:11:01;36.75;;;14.38;;
52918;SDS011;38793;52.690;6.812;2022-12-22T10:13:27;42.55;;;16.42;;
52918;SDS011;38793;52.690;6.812;2022-12-22T10:15:53;38.63;;;17.08;;
52918;SDS011;38793;52.690;6.812;2022-12-22T10:18:20;42.30;;;18.25;;
52918;SDS011;38793;52.690;6.812;2022-12-22T10:21:05;31.85;;;15.82;;
52918;SDS011;38793;52.690;6.812;2022-12-22T10:26:08;39.30;;;16.23;;
52918;SDS011;38793;52.690;6.812;2022-12-22T10:28:48;45.90;;;18.42;;
52918;SDS011;38793;52.690;6.812;2022-12-22T10:31:20;34.90;;;15.50;;
52918;SDS011;38793;52.690;6.812;2022-12-22T10:33:49;29.90;;;12.25;;
52918;SDS011;38793;52.690;6.812;2022-12-22T10:36:21;29.65;;;13.07;;
52918;SDS011;38793;52.690;6.812;2022-12-22T10:38:53;30.30;;;12.65;;
52918;SDS011;38793;52.690;6.812;2022-12-22T10:41:25;23.48;;;10.77;;
52918;SDS011;38793;52.690;6.812;2022-12-22T10:43:58;19.10;;;9.45;;
52918;SDS011;38793;52.690;6.812;2022-12-22T10:49:07;17.17;;;9.95;;
52918;SDS011;38793;52.690;6.812;2022-12-22T10:51:39;17.30;;;8.75;;
52918;SDS011;38793;52.690;6.812;2022-12-22T10:54:06;14.55;;;7.93;;
52918;SDS011;38793;52.690;6.812;2022-12-22T10:56:32;11.90;;;6.97;;
52918;SDS011;38793;52.690;6.812;2022-12-22T11:01:31;13.00;;;7.18;;
52918;SDS011;38793;52.690;6.812;2022-12-22T11:04:13;10.73;;;6.43;;
52918;SDS011;38793;52.690;6.812;2022-12-22T11:06:51;11.40;;;6.50;;
52918;SDS011;38793;52.690;6.812;2022-12-22T11:09:17;12.68;;;6.07;;
52918;SDS011;38793;52.690;6.812;2022-12-22T11:11:54;9.98;;;5.80;;
52918;SDS011;38793;52.690;6.812;2022-12-22T11:14:56;9.18;;;6.07;;
52918;SDS011;38793;52.690;6.812;2022-12-22T11:17:36;11.10;;;6.50;;
52918;SDS011;38793;52.690;6.812;2022-12-22T11:25:33;12.10;;;6.47;;
52918;SDS011;38793;52.690;6.812;2022-12-22T11:30:59;16.85;;;8.68;;
52918;SDS011;38793;52.690;6.812;2022-12-22T11:33:53;12.27;;;6.68;;
52918;SDS011;38793;52.690;6.812;2022-12-22T11:36:40;13.50;;;7.70;;
52918;SDS011;38793;52.690;6.812;2022-12-22T11:39:14;10.75;;;6.55;;
52918;SDS011;38793;52.690;6.812;2022-12-22T11:41:51;11.70;;;6.10;;
52918;SDS011;38793;52.690;6.812;2022-12-22T11:44:44;13.45;;;6.25;;
52918;SDS011;38793;52.690;6.812;2022-12-22T11:47:23;12.75;;;5.25;;
52918;SDS011;38793;52.690;6.812;2022-12-22T11:53:11;12.63;;;6.00;;
52918;SDS011;38793;52.690;6.812;2022-12-22T11:55:59;20.77;;;7.22;;
52918;SDS011;38793;52.690;6.812;2022-12-22T11:58:41;11.10;;;5.82;;
52918;SDS011;38793;52.690;6.812;2022-12-22T12:01:33;15.32;;;6.55;;
52918;SDS011;38793;52.690;6.812;2022-12-22T12:04:31;14.77;;;7.10;;
52918;SDS011;38793;52.690;6.812;2022-12-22T12:12:25;11.85;;;5.95;;
52918;SDS011;38793;52.690;6.812;2022-12-22T12:23:28;12.85;;;4.82;;
52918;SDS011;38793;52.690;6.812;2022-12-22T12:29:19;10.07;;;4.85;;
52918;SDS011;38793;52.690;6.812;2022-12-22T12:34:24;14.30;;;5.90;;
52918;SDS011;38793;52.690;6.812;2022-12-22T12:36:57;11.07;;;5.30;;
52918;SDS011;38793;52.690;6.812;2022-12-22T12:39:29;10.55;;;5.90;;
52918;SDS011;38793;52.690;6.812;2022-12-22T12:44:54;9.70;;;5.32;;
52918;SDS011;38793;52.690;6.812;2022-12-22T12:57:57;11.27;;;5.20;;
52918;SDS011;38793;52.690;6.812;2022-12-22T13:02:57;9.05;;;5.40;;
52918;SDS011;38793;52.690;6.812;2022-12-22T13:08:13;13.63;;;5.65;;
52918;SDS011;38793;52.690;6.812;2022-12-22T13:13:12;13.30;;;4.75;;
52918;SDS011;38793;52.690;6.812;2022-12-22T13:18:44;11.13;;;4.40;;
52918;SDS011;38793;52.690;6.812;2022-12-22T13:21:15;11.75;;;5.55;;
52918;SDS011;38793;52.690;6.812;2022-12-22T13:26:30;11.70;;;4.78;;
52918;SDS011;38793;52.690;6.812;2022-12-22T13:29:08;8.88;;;4.28;;
52918;SDS011;38793;52.690;6.812;2022-12-22T13:34:45;16.05;;;5.35;;
52918;SDS011;38793;52.690;6.812;2022-12-22T13:40:04;10.23;;;4.82;;
52918;SDS011;38793;52.690;6.812;2022-12-22T13:42:29;12.60;;;4.75;;
52918;SDS011;38793;52.690;6.812;2022-12-22T13:44:59;10.77;;;5.60;;
52918;SDS011;38793;52.690;6.812;2022-12-22T13:47:25;10.98;;;5.10;;
52918;SDS011;38793;52.690;6.812;2022-12-22T13:49:51;9.65;;;5.22;;
52918;SDS011;38793;52.690;6.812;2022-12-22T13:52:17;8.23;;;3.75;;
52918;SDS011;38793;52.690;6.812;2022-12-22T13:54:45;5.70;;;3.72;;
52918;SDS011;38793;52.690;6.812;2022-12-22T13:57:18;12.27;;;4.40;;
52918;SDS011;38793;52.690;6.812;2022-12-22T13:59:46;9.52;;;4.30;;
52918;SDS011;38793;52.690;6.812;2022-12-22T14:02:15;10.75;;;4.55;;
52918;SDS011;38793;52.690;6.812;2022-12-22T14:04:44;9.02;;;4.70;;
52918;SDS011;38793;52.690;6.812;2022-12-22T14:07:26;11.63;;;4.72;;
52918;SDS011;38793;52.690;6.812;2022-12-22T14:09:54;12.88;;;4.30;;
52918;SDS011;38793;52.690;6.812;2022-12-22T14:12:24;10.63;;;5.00;;
52918;SDS011;38793;52.690;6.812;2022-12-22T14:15:06;11.45;;;4.78;;
52918;SDS011;38793;52.690;6.812;2022-12-22T14:17:38;8.45;;;3.85;;
52918;SDS011;38793;52.690;6.812;2022-12-22T14:22:42;14.02;;;6.25;;
52918;SDS011;38793;52.690;6.812;2022-12-22T14:25:20;8.70;;;4.00;;
52918;SDS011;38793;52.690;6.812;2022-12-22T14:27:53;14.32;;;4.45;;
52918;SDS011;38793;52.690;6.812;2022-12-22T14:30:36;8.80;;;3.42;;
52918;SDS011;38793;52.690;6.812;2022-12-22T14:33:15;6.40;;;3.35;;
52918;SDS011;38793;52.690;6.812;2022-12-22T14:35:47;9.15;;;4.18;;
52918;SDS011;38793;52.690;6.812;2022-12-22T14:40:42;18.73;;;4.18;;
52918;SDS011;38793;52.690;6.812;2022-12-22T14:45:47;13.38;;;4.00;;
52918;SDS011;38793;52.690;6.812;2022-12-22T14:48:18;11.30;;;4.50;;
52918;SDS011;38793;52.690;6.812;2022-12-22T14:51:01;9.27;;;3.75;;
52918;SDS011;38793;52.690;6.812;2022-12-22T14:53:35;9.52;;;3.33;;
52918;SDS011;38793;52.690;6.812;2022-12-22T14:56:13;14.85;;;4.03;;
52918;SDS011;38793;52.690;6.812;2022-12-22T14:58:40;9.57;;;4.00;;
52918;SDS011;38793;52.690;6.812;2022-12-22T15:01:21;8.88;;;4.72;;
52918;SDS011;38793;52.690;6.812;2022-12-22T15:03:59;8.82;;;4.40;;
52918;SDS011;38793;52.690;6.812;2022-12-22T15:06:39;8.88;;;5.05;;
52918;SDS011;38793;52.690;6.812;2022-12-22T15:11:38;12.93;;;4.93;;
52918;SDS011;38793;52.690;6.812;2022-12-22T15:14:12;7.72;;;5.03;;
52918;SDS011;38793;52.690;6.812;2022-12-22T15:16:41;13.50;;;5.78;;
52918;SDS011;38793;52.690;6.812;2022-12-22T15:19:09;9.70;;;5.43;;
52918;SDS011;38793;52.690;6.812;2022-12-22T15:21:40;14.73;;;6.03;;
52918;SDS011;38793;52.690;6.812;2022-12-22T15:24:12;13.60;;;6.47;;
52918;SDS011;38793;52.690;6.812;2022-12-22T15:26:40;13.02;;;6.05;;
52918;SDS011;38793;52.690;6.812;2022-12-22T15:29:06;10.95;;;6.70;;
52918;SDS011;38793;52.690;6.812;2022-12-22T15:31:32;14.90;;;7.40;;
52918;SDS011;38793;52.690;6.812;2022-12-22T15:33:58;10.45;;;6.40;;
52918;SDS011;38793;52.690;6.812;2022-12-22T15:36:25;15.38;;;6.35;;
52918;SDS011;38793;52.690;6.812;2022-12-22T15:38:51;15.67;;;6.80;;
52918;SDS011;38793;52.690;6.812;2022-12-22T15:41:17;15.70;;;7.93;;
52918;SDS011;38793;52.690;6.812;2022-12-22T15:43:42;13.17;;;7.03;;
52918;SDS011;38793;52.690;6.812;2022-12-22T15:46:10;13.13;;;7.80;;
52918;SDS011;38793;52.690;6.812;2022-12-22T15:48:40;14.63;;;7.85;;
52918;SDS011;38793;52.690;6.812;2022-12-22T15:51:07;13.27;;;8.30;;
52918;SDS011;38793;52.690;6.812;2022-12-22T15:53:44;17.63;;;9.10;;
52918;SDS011;38793;52.690;6.812;2022-12-22T15:56:11;19.30;;;10.35;;
52918;SDS011;38793;52.690;6.812;2022-12-22T15:58:41;17.35;;;9.30;;
52918;SDS011;38793;52.690;6.812;2022-12-22T16:01:08;18.30;;;10.27;;
52918;SDS011;38793;52.690;6.812;2022-12-22T16:03:35;19.98;;;10.55;;
52918;SDS011;38793;52.690;6.812;2022-12-22T16:06:02;20.58;;;10.80;;
52918;SDS011;38793;52.690;6.812;2022-12-22T16:08:32;18.35;;;10.90;;
52918;SDS011;38793;52.690;6.812;2022-12-22T16:11:01;24.98;;;12.35;;
52918;SDS011;38793;52.690;6.812;2022-12-22T16:13:28;24.40;;;13.02;;
52918;SDS011;38793;52.690;6.812;2022-12-22T16:15:54;20.13;;;12.25;;
52918;SDS011;38793;52.690;6.812;2022-12-22T16:18:20;23.25;;;14.10;;
52918;SDS011;38793;52.690;6.812;2022-12-22T16:20:45;28.13;;;15.23;;
52918;SDS011;38793;52.690;6.812;2022-12-22T16:23:15;26.92;;;13.25;;
52918;SDS011;38793;52.690;6.812;2022-12-22T16:25:43;21.60;;;13.20;;
52918;SDS011;38793;52.690;6.812;2022-12-22T16:28:13;23.23;;;15.10;;
52918;SDS011;38793;52.690;6.812;2022-12-22T16:30:46;26.35;;;14.00;;
52918;SDS011;38793;52.690;6.812;2022-12-22T16:33:12;23.23;;;14.73;;
52918;SDS011;38793;52.690;6.812;2022-12-22T16:38:04;27.20;;;14.82;;
52918;SDS011;38793;52.690;6.812;2022-12-22T16:40:30;25.65;;;14.95;;
52918;SDS011;38793;52.690;6.812;2022-12-22T16:42:58;24.90;;;14.93;;
52918;SDS011;38793;52.690;6.812;2022-12-22T16:45:27;26.02;;;15.55;;
52918;SDS011;38793;52.690;6.812;2022-12-22T16:47:56;28.63;;;17.20;;
52918;SDS011;38793;52.690;6.812;2022-12-22T16:50:27;24.60;;;15.23;;
52918;SDS011;38793;52.690;6.812;2022-12-22T16:53:00;29.38;;;15.80;;